Time;durP1;ratioP1;P1;durP2;ratioP2;P2;SDS_P1;SDS_P2;PMS_P1;PMS_P2;Temp;Humidity;BMP_temperature;BMP_pressure;BME280_temperature;BME280_humidity;BME280_pressure;Samples;Min_cycle;Max_cycle;Signal;HPM_P1;HPM_P2
2021/10/19 00:00:06;;;;;;;19.90;12.65;;;6.60;80.10;;;;;;4959181;28;20035;-66
2021/10/19 00:02:32;;;;;;;22.85;13.23;;;6.60;80.70;;;;;;4959803;28;20532;-66
2021/10/19 00:04:58;;;;;;;21.65;13.05;;;6.60;81.10;;;;;;4960306;28;20059;-66
2021/10/19 00:07:23;;;;;;;66.47;14.45;;;6.60;81.30;;;;;;4959504;28;20070;-66
2021/10/19 00:09:49;;;;;;;36.95;13.90;;;6.50;81.30;;;;;;4958573;28;20066;-66
2021/10/19 00:12:15;;;;;;;27.85;13.93;;;6.50;81.10;;;;;;4959012;28;20085;-66
2021/10/19 00:14:40;;;;;;;19.45;12.80;;;6.50;81.10;;;;;;4958193;28;20040;-66
2021/10/19 00:17:06;;;;;;;20.75;12.70;;;6.50;81.30;;;;;;4959026;28;20055;-66
2021/10/19 00:19:33;;;;;;;25.33;12.07;;;6.50;81.40;;;;;;4959666;28;20026;-66
2021/10/19 00:21:58;;;;;;;25.05;12.02;;;6.40;81.60;;;;;;4959468;28;20039;-66
2021/10/19 00:24:24;;;;;;;19.40;11.45;;;6.40;81.80;;;;;;4958817;28;20039;-66
2021/10/19 00:26:50;;;;;;;18.20;12.43;;;6.40;82.10;;;;;;4959024;28;20039;-66
2021/10/19 00:29:16;;;;;;;18.33;11.10;;;6.40;82.50;;;;;;4961569;28;20110;-66
2021/10/19 00:31:41;;;;;;;15.45;10.88;;;6.40;82.60;;;;;;4959272;28;20061;-66
2021/10/19 00:34:07;;;;;;;14.95;10.73;;;6.40;82.60;;;;;;4959401;28;20582;-66
2021/10/19 00:36:32;;;;;;;32.75;11.15;;;6.50;82.60;;;;;;4959390;28;20538;-66
2021/10/19 00:38:58;;;;;;;15.82;11.02;;;6.50;82.60;;;;;;4959283;28;20042;-66
2021/10/19 00:41:24;;;;;;;17.00;11.27;;;6.60;82.20;;;;;;4959159;28;20118;-66
2021/10/19 00:43:51;;;;;;;17.33;11.38;;;6.50;82.10;;;;;;4958884;28;20061;-66
2021/10/19 00:46:17;;;;;;;21.45;11.13;;;6.60;82.10;;;;;;4957071;28;20050;-65
2021/10/19 00:48:46;;;;;;;17.33;11.73;;;6.60;81.90;;;;;;4958502;28;20042;-65
2021/10/19 00:51:13;;;;;;;16.42;11.60;;;6.70;81.80;;;;;;4958990;28;20110;-66
2021/10/19 00:53:39;;;;;;;15.32;11.18;;;6.60;81.60;;;;;;4958871;28;20039;-66
2021/10/19 00:56:08;;;;;;;13.88;10.68;;;6.70;81.50;;;;;;4956936;28;20045;-66
2021/10/19 00:58:38;;;;;;;26.17;12.18;;;6.70;81.30;;;;;;4954789;28;20042;-66
2021/10/19 01:01:05;;;;;;;14.50;10.63;;;6.70;81.20;;;;;;4961188;28;20033;-66
2021/10/19 01:03:30;;;;;;;18.52;11.65;;;6.70;81.30;;;;;;4955008;28;20050;-65
2021/10/19 01:05:58;;;;;;;18.73;12.20;;;6.70;81.30;;;;;;4955681;28;20039;-66
2021/10/19 01:08:23;;;;;;;16.30;11.38;;;6.70;81.20;;;;;;4957926;28;20457;-66
2021/10/19 01:10:50;;;;;;;15.43;11.15;;;6.70;80.90;;;;;;4952984;28;20046;-66
2021/10/19 01:13:15;;;;;;;15.95;11.68;;;6.70;81.00;;;;;;4959381;28;20100;-66
2021/10/19 01:15:41;;;;;;;15.45;11.02;;;6.70;81.20;;;;;;4960183;28;20519;-65
2021/10/19 01:18:07;;;;;;;16.75;11.65;;;6.70;81.00;;;;;;4958832;28;20031;-66
2021/10/19 01:20:35;;;;;;;20.35;12.23;;;6.70;81.00;;;;;;4959778;28;20439;-66
2021/10/19 01:23:02;;;;;;;20.10;11.35;;;6.70;81.00;;;;;;4959400;28;20042;-66
2021/10/19 01:25:31;;;;;;;26.67;12.98;;;6.70;81.20;;;;;;4958235;28;22243;-64
2021/10/19 01:28:00;;;;;;;18.30;11.98;;;6.80;81.30;;;;;;4958559;28;20046;-65
2021/10/19 01:30:26;;;;;;;21.08;13.43;;;6.70;81.30;;;;;;4960468;28;20089;-66
2021/10/19 01:32:53;;;;;;;62.50;14.52;;;6.80;81.40;;;;;;4960808;28;20043;-66
2021/10/19 01:35:29;;;;;;;94.85;15.10;;;6.80;81.30;;;;;;4959714;28;20039;-66
2021/10/19 01:37:54;;;;;;;104.07;12.88;;;6.80;81.20;;;;;;4956567;28;20043;-64
2021/10/19 01:40:20;;;;;;;35.30;11.43;;;6.70;81.20;;;;;;4959674;28;20395;-65
2021/10/19 01:42:45;;;;;;;48.00;9.90;;;6.70;81.20;;;;;;4958751;28;20089;-66
2021/10/19 01:45:14;;;;;;;122.93;10.60;;;6.70;81.20;;;;;;4960334;28;20066;-66
2021/10/19 01:47:40;;;;;;;157.23;11.52;;;6.60;81.10;;;;;;4959477;28;20043;-66
2021/10/19 01:50:07;;;;;;;324.40;21.25;;;6.50;81.10;;;;;;4958468;28;20715;-65
2021/10/19 01:52:32;;;;;;;226.60;17.00;;;6.50;81.40;;;;;;4956361;28;20035;-66
2021/10/19 01:54:58;;;;;;;270.20;20.10;;;6.40;81.70;;;;;;4960054;28;20039;-65
2021/10/19 01:57:23;;;;;;;208.38;19.02;;;6.30;82.10;;;;;;4964212;28;20059;-66
2021/10/19 01:59:49;;;;;;;115.28;15.18;;;6.30;82.50;;;;;;4955659;28;20037;-65
2021/10/19 02:02:15;;;;;;;56.55;11.38;;;6.30;82.80;;;;;;4960491;28;20050;-66
2021/10/19 02:04:40;;;;;;;85.65;10.70;;;6.20;83.20;;;;;;4956647;28;20530;-66
2021/10/19 02:07:06;;;;;;;59.10;10.27;;;6.20;83.60;;;;;;4963233;28;20043;-65
2021/10/19 02:09:32;;;;;;;10.68;8.82;;;6.20;83.90;;;;;;4956550;28;20046;-66
2021/10/19 02:11:57;;;;;;;12.80;9.63;;;6.20;84.00;;;;;;4957019;28;20031;-66
2021/10/19 02:14:23;;;;;;;44.97;10.20;;;6.20;84.40;;;;;;4958592;28;20122;-66
2021/10/19 02:16:48;;;;;;;44.03;9.38;;;6.30;84.60;;;;;;4955883;28;20062;-66
2021/10/19 02:19:14;;;;;;;16.13;9.52;;;6.30;84.40;;;;;;4959380;28;20035;-66
2021/10/19 02:21:39;;;;;;;15.90;9.05;;;6.30;84.40;;;;;;4956475;28;20078;-66
2021/10/19 02:24:05;;;;;;;24.02;9.70;;;6.40;84.50;;;;;;4955432;28;20463;-64
2021/10/19 02:26:31;;;;;;;33.88;9.70;;;6.40;84.40;;;;;;4956796;28;20078;-65
2021/10/19 02:28:57;;;;;;;32.22;9.25;;;6.50;84.30;;;;;;4959321;28;20569;-66
2021/10/19 02:31:22;;;;;;;23.38;8.88;;;6.60;84.10;;;;;;4959958;28;20105;-65
2021/10/19 02:33:48;;;;;;;12.82;9.13;;;6.60;84.00;;;;;;4957864;28;20035;-65
2021/10/19 02:36:13;;;;;;;8.90;7.78;;;6.60;83.90;;;;;;4960491;28;20119;-65
2021/10/19 02:38:39;;;;;;;22.15;8.30;;;6.70;84.00;;;;;;4959074;28;20038;-65
2021/10/19 02:41:04;;;;;;;73.78;8.88;;;6.70;84.80;;;;;;4957148;28;20035;-66
2021/10/19 02:43:30;;;;;;;66.43;9.93;;;6.80;83.80;;;;;;4957389;28;20094;-66
2021/10/19 02:45:56;;;;;;;14.23;8.15;;;6.80;83.30;;;;;;4956475;28;20530;-64
2021/10/19 02:48:21;;;;;;;34.22;9.82;;;6.80;82.90;;;;;;4957895;28;20031;-65
2021/10/19 02:50:47;;;;;;;26.20;8.60;;;6.80;82.90;;;;;;4958112;28;20611;-66
2021/10/19 02:53:12;;;;;;;15.18;7.90;;;6.80;82.90;;;;;;4956865;28;20027;-66
2021/10/19 02:55:38;;;;;;;9.05;7.93;;;6.70;82.80;;;;;;4957427;28;20126;-66
2021/10/19 02:58:04;;;;;;;12.20;7.60;;;6.70;82.90;;;;;;4955661;28;20110;-65
2021/10/19 03:00:29;;;;;;;15.23;8.10;;;6.70;84.00;;;;;;4958030;28;20069;-66
2021/10/19 03:02:56;;;;;;;31.35;8.27;;;6.70;83.20;;;;;;4958174;28;20039;-65
2021/10/19 03:05:22;;;;;;;10.77;8.27;;;6.70;83.00;;;;;;4957619;28;20601;-66
2021/10/19 03:07:47;;;;;;;9.32;7.53;;;6.70;82.70;;;;;;4957703;28;20058;-66
2021/10/19 03:10:14;;;;;;;8.80;7.50;;;6.70;82.90;;;;;;4956865;28;20043;-66
2021/10/19 03:12:40;;;;;;;8.00;7.20;;;6.60;83.10;;;;;;4957191;28;20043;-65
2021/10/19 03:15:06;;;;;;;8.10;7.13;;;6.70;83.60;;;;;;4955808;28;20522;-65
2021/10/19 03:17:32;;;;;;;9.10;7.95;;;6.70;83.70;;;;;;4955948;28;20047;-66
2021/10/19 03:19:58;;;;;;;8.55;7.43;;;6.80;83.80;;;;;;4957144;28;20074;-65
2021/10/19 03:22:23;;;;;;;8.90;7.78;;;6.80;83.60;;;;;;4954598;28;20043;-65
2021/10/19 03:24:49;;;;;;;9.00;7.82;;;6.80;83.60;;;;;;4952434;28;20553;-65
2021/10/19 03:27:14;;;;;;;9.10;8.20;;;6.90;83.60;;;;;;4974345;28;21022;-66
2021/10/19 03:29:41;;;;;;;9.25;7.90;;;6.90;83.40;;;;;;4955646;28;20042;-66
2021/10/19 03:32:07;;;;;;;9.30;8.15;;;6.90;83.10;;;;;;4956452;28;20503;-65
2021/10/19 03:34:32;;;;;;;11.10;8.85;;;6.90;83.10;;;;;;4954739;28;20042;-66
2021/10/19 03:36:58;;;;;;;14.98;8.95;;;6.90;83.00;;;;;;4955576;28;20136;-65
2021/10/19 03:39:23;;;;;;;12.30;8.63;;;6.90;83.40;;;;;;4953595;28;20525;-64
2021/10/19 03:41:49;;;;;;;12.27;9.57;;;6.90;83.30;;;;;;4955828;28;20537;-66
2021/10/19 03:44:15;;;;;;;8.95;8.00;;;6.90;83.60;;;;;;4954718;28;20094;-65
2021/10/19 03:46:40;;;;;;;10.82;8.82;;;6.90;83.80;;;;;;4952838;28;20051;-66
2021/10/19 03:49:06;;;;;;;10.23;8.38;;;7.00;84.00;;;;;;4954726;28;20030;-66
2021/10/19 03:51:32;;;;;;;11.48;8.52;;;7.00;84.00;;;;;;4954289;28;20114;-65
2021/10/19 03:53:57;;;;;;;11.23;8.95;;;7.00;83.90;;;;;;4956678;28;20063;-66
2021/10/19 03:56:23;;;;;;;12.30;9.70;;;7.10;84.00;;;;;;4956036;28;20059;-65
2021/10/19 03:58:48;;;;;;;10.70;8.63;;;7.10;84.00;;;;;;4956570;28;20498;-66
2021/10/19 04:01:14;;;;;;;10.00;8.52;;;7.20;84.00;;;;;;4954330;28;20043;-65
2021/10/19 04:03:40;;;;;;;12.23;9.70;;;7.20;83.80;;;;;;4954674;28;20534;-66
2021/10/19 04:06:07;;;;;;;10.93;8.65;;;7.30;84.00;;;;;;4956036;28;20402;-66
2021/10/19 04:08:33;;;;;;;12.25;9.70;;;7.30;84.00;;;;;;4955720;28;20451;-66
2021/10/19 04:10:59;;;;;;;12.07;9.82;;;7.30;84.10;;;;;;4955097;28;20027;-66
2021/10/19 04:13:24;;;;;;;15.85;12.35;;;7.40;84.30;;;;;;4958215;28;20156;-66
2021/10/19 04:15:50;;;;;;;15.23;11.77;;;7.40;84.20;;;;;;4954222;28;20861;-65
2021/10/19 04:18:15;;;;;;;15.57;11.88;;;7.50;84.20;;;;;;4956758;28;20039;-66
2021/10/19 04:20:41;;;;;;;17.05;12.43;;;7.50;84.30;;;;;;4956448;28;20130;-65
2021/10/19 04:23:07;;;;;;;14.00;10.90;;;7.50;84.40;;;;;;4955340;28;20042;-66
2021/10/19 04:25:32;;;;;;;14.38;10.60;;;7.60;84.60;;;;;;4956617;28;20154;-66
2021/10/19 04:27:58;;;;;;;14.10;10.68;;;7.60;84.60;;;;;;4957447;28;20090;-65
2021/10/19 04:30:23;;;;;;;16.35;11.52;;;7.60;84.60;;;;;;4956370;28;20038;-66
2021/10/19 04:32:49;;;;;;;16.52;12.00;;;7.70;84.60;;;;;;4956155;28;20043;-66
2021/10/19 04:35:15;;;;;;;20.27;14.00;;;7.70;84.50;;;;;;4957444;28;20573;-66
2021/10/19 04:37:40;;;;;;;16.98;12.45;;;7.70;84.50;;;;;;4955072;28;20057;-66
2021/10/19 04:40:06;;;;;;;15.75;12.27;;;7.70;84.50;;;;;;4956592;28;20625;-65
2021/10/19 04:42:33;;;;;;;18.58;13.27;;;7.70;84.50;;;;;;4955031;28;20035;-66
2021/10/19 04:45:00;;;;;;;16.70;12.60;;;7.80;84.70;;;;;;4955931;28;20087;-65
2021/10/19 04:47:27;;;;;;;15.88;12.57;;;7.80;84.80;;;;;;4957277;28;20052;-65
2021/10/19 04:49:53;;;;;;;15.30;11.65;;;7.80;85.00;;;;;;4961333;28;20244;-66
2021/10/19 04:52:19;;;;;;;16.92;12.05;;;7.80;85.20;;;;;;4960142;28;20045;-66
2021/10/19 04:54:44;;;;;;;15.85;11.15;;;7.80;85.20;;;;;;4960439;28;20122;-66
2021/10/19 04:57:10;;;;;;;20.08;11.15;;;7.90;85.30;;;;;;4966445;28;20042;-67
2021/10/19 04:59:35;;;;;;;16.25;11.98;;;7.90;85.20;;;;;;4962804;28;20051;-67
2021/10/19 05:02:01;;;;;;;18.58;11.88;;;8.00;85.10;;;;;;4962063;28;20035;-67
2021/10/19 05:04:27;;;;;;;18.02;11.25;;;8.00;85.00;;;;;;4962002;28;20038;-67
2021/10/19 05:06:52;;;;;;;16.05;12.07;;;8.10;84.90;;;;;;4962798;28;20038;-67
2021/10/19 05:09:18;;;;;;;17.40;12.63;;;8.10;84.80;;;;;;4962662;28;20984;-67
2021/10/19 05:11:43;;;;;;;13.32;10.82;;;8.10;84.70;;;;;;4961255;28;20095;-67
2021/10/19 05:14:09;;;;;;;14.70;11.50;;;8.20;84.80;;;;;;4961927;28;20038;-66
2021/10/19 05:16:35;;;;;;;14.70;9.77;;;8.20;84.80;;;;;;4962056;28;20046;-66
2021/10/19 05:19:00;;;;;;;15.73;11.43;;;8.20;84.80;;;;;;4962472;28;20035;-66
2021/10/19 05:21:26;;;;;;;15.70;11.07;;;8.30;84.80;;;;;;4961746;28;20122;-66
2021/10/19 05:23:51;;;;;;;19.60;10.60;;;8.30;84.60;;;;;;4962001;28;20042;-67
2021/10/19 05:26:18;;;;;;;17.75;11.05;;;8.30;84.50;;;;;;4963354;28;20034;-67
2021/10/19 05:28:43;;;;;;;14.57;10.43;;;8.40;84.60;;;;;;4962419;28;20031;-66
2021/10/19 05:31:09;;;;;;;15.85;11.15;;;8.40;84.50;;;;;;4962185;28;20031;-66
2021/10/19 05:33:35;;;;;;;17.33;11.15;;;8.40;84.40;;;;;;4959728;28;20035;-67
2021/10/19 05:36:01;;;;;;;14.13;10.85;;;8.40;84.40;;;;;;4960901;28;20046;-67
2021/10/19 05:38:27;;;;;;;13.98;10.63;;;8.40;84.50;;;;;;4960770;28;20035;-66
2021/10/19 05:40:52;;;;;;;16.98;11.10;;;8.50;84.70;;;;;;4958451;28;20042;-67
2021/10/19 05:43:18;;;;;;;15.38;10.75;;;8.60;85.00;;;;;;4960250;28;20629;-66
2021/10/19 05:45:44;;;;;;;15.40;10.90;;;8.60;85.20;;;;;;4959836;28;20046;-66
2021/10/19 05:48:09;;;;;;;24.80;16.35;;;8.60;85.30;;;;;;4961018;28;20030;-66
2021/10/19 05:50:37;;;;;;;22.05;14.65;;;8.70;85.50;;;;;;4958657;28;20379;-67
2021/10/19 05:53:02;;;;;;;18.88;12.57;;;8.70;85.60;;;;;;4958375;28;20506;-66
2021/10/19 05:55:28;;;;;;;16.38;11.38;;;8.80;85.70;;;;;;4959643;28;20091;-66
2021/10/19 05:57:53;;;;;;;16.38;11.02;;;8.90;85.80;;;;;;4958660;28;20418;-66
2021/10/19 06:00:19;;;;;;;16.10;11.10;;;8.90;85.70;;;;;;4959354;28;20449;-65
2021/10/19 06:02:45;;;;;;;15.95;10.63;;;9.00;85.80;;;;;;4959283;28;20089;-66
2021/10/19 06:05:10;;;;;;;16.10;11.00;;;9.00;85.70;;;;;;4960034;28;20374;-67
2021/10/19 06:07:36;;;;;;;15.65;11.20;;;9.10;85.70;;;;;;4960627;28;20443;-67
2021/10/19 06:10:03;;;;;;;16.77;10.95;;;9.20;85.70;;;;;;4958193;28;20054;-66
2021/10/19 06:12:29;;;;;;;14.95;10.60;;;9.20;85.60;;;;;;4957123;28;20037;-67
2021/10/19 06:14:55;;;;;;;17.27;11.38;;;9.30;85.50;;;;;;4961004;28;20046;-67
2021/10/19 06:17:20;;;;;;;17.77;11.60;;;9.30;85.50;;;;;;4959220;28;20120;-66
2021/10/19 06:19:47;;;;;;;19.13;11.50;;;9.40;85.40;;;;;;4957503;28;20578;-67
2021/10/19 06:22:13;;;;;;;15.60;10.98;;;9.50;85.40;;;;;;4960012;28;20506;-66
2021/10/19 06:24:39;;;;;;;14.38;10.85;;;9.50;85.30;;;;;;4959939;28;20062;-67
2021/10/19 06:27:05;;;;;;;18.55;11.88;;;9.60;85.20;;;;;;4961487;28;20033;-67
2021/10/19 06:29:30;;;;;;;16.60;12.55;;;9.60;85.10;;;;;;4961485;28;20403;-67
2021/10/19 06:31:56;;;;;;;21.20;12.82;;;9.60;85.10;;;;;;4960128;28;20058;-66
2021/10/19 06:34:22;;;;;;;16.33;12.15;;;9.70;85.20;;;;;;4960568;28;20569;-66
2021/10/19 06:36:48;;;;;;;19.42;12.55;;;9.70;85.30;;;;;;4958785;28;20129;-66
2021/10/19 06:39:13;;;;;;;22.27;13.77;;;9.70;85.30;;;;;;4958171;28;20051;-67
2021/10/19 06:41:39;;;;;;;17.55;12.63;;;9.80;85.50;;;;;;4959945;28;20474;-66
2021/10/19 06:44:05;;;;;;;18.92;12.35;;;9.80;85.60;;;;;;4956683;28;20511;-66
2021/10/19 06:46:31;;;;;;;15.40;11.18;;;9.80;85.60;;;;;;4957292;28;20582;-66
2021/10/19 06:48:56;;;;;;;18.20;11.07;;;9.90;85.70;;;;;;4956120;28;20032;-65
2021/10/19 06:51:22;;;;;;;18.55;11.98;;;9.90;85.50;;;;;;4955698;28;20046;-67
2021/10/19 06:53:48;;;;;;;18.65;12.98;;;9.90;85.50;;;;;;4957801;28;20045;-67
2021/10/19 06:56:14;;;;;;;18.85;11.75;;;10.00;86.50;;;;;;4957386;28;20039;-67
2021/10/19 06:58:39;;;;;;;19.27;12.68;;;10.00;85.70;;;;;;4956516;28;20169;-67
2021/10/19 07:01:05;;;;;;;16.25;12.15;;;10.10;85.80;;;;;;4958989;28;20114;-67
2021/10/19 07:03:32;;;;;;;16.10;12.18;;;10.10;85.90;;;;;;4958141;28;20035;-67
2021/10/19 07:06:02;;;;;;;21.85;13.57;;;10.20;86.10;;;;;;4962964;28;20498;-66
2021/10/19 07:08:29;;;;;;;18.98;14.18;;;10.20;86.00;;;;;;4956709;28;20031;-67
2021/10/19 07:10:55;;;;;;;18.25;13.75;;;10.30;86.10;;;;;;4957200;28;20038;-66
2021/10/19 07:13:24;;;;;;;17.55;13.45;;;10.30;86.10;;;;;;4955263;28;20513;-66
2021/10/19 07:15:54;;;;;;;20.65;12.85;;;10.40;86.20;;;;;;4955713;28;20023;-66
2021/10/19 07:18:21;;;;;;;18.02;12.88;;;10.40;86.20;;;;;;4957616;28;20031;-67
2021/10/19 07:20:48;;;;;;;18.23;14.10;;;10.50;86.20;;;;;;4958745;28;20035;-67
2021/10/19 07:23:14;;;;;;;21.92;14.95;;;10.50;86.00;;;;;;4959198;28;20035;-67
2021/10/19 07:25:40;;;;;;;23.38;16.55;;;10.60;86.00;;;;;;4959539;28;20089;-66
2021/10/19 07:28:05;;;;;;;21.67;14.63;;;10.60;86.00;;;;;;4957807;28;20506;-66
2021/10/19 07:30:31;;;;;;;24.42;14.32;;;10.70;86.00;;;;;;4956342;28;20054;-67
2021/10/19 07:32:57;;;;;;;18.40;13.02;;;10.80;86.00;;;;;;4956485;28;20346;-66
2021/10/19 07:35:23;;;;;;;17.08;11.85;;;10.80;85.90;;;;;;4959767;28;20038;-66
2021/10/19 07:37:49;;;;;;;18.30;12.65;;;10.90;85.90;;;;;;4956549;28;20042;-66
2021/10/19 07:40:15;;;;;;;22.92;13.52;;;10.90;85.90;;;;;;4958211;28;20031;-67
2021/10/19 07:42:42;;;;;;;17.40;11.93;;;11.00;85.80;;;;;;4957140;28;20046;-66
2021/10/19 07:45:09;;;;;;;16.55;11.95;;;11.00;85.70;;;;;;4955607;28;20042;-67
2021/10/19 07:47:43;;;;;;;16.48;12.25;;;11.10;85.40;;;;;;4958827;28;20038;-67
2021/10/19 07:50:11;;;;;;;16.60;11.70;;;11.10;85.30;;;;;;4956156;28;20526;-66
2021/10/19 07:52:37;;;;;;;19.30;11.77;;;11.20;85.10;;;;;;4956564;28;20043;-66
2021/10/19 07:55:04;;;;;;;18.33;12.05;;;11.20;85.00;;;;;;4956469;28;20078;-66
2021/10/19 07:57:30;;;;;;;18.55;12.38;;;11.20;85.10;;;;;;4956791;28;20131;-66
2021/10/19 07:59:55;;;;;;;17.00;12.57;;;11.20;85.00;;;;;;4957354;28;20109;-67
2021/10/19 08:02:21;;;;;;;17.55;11.98;;;11.30;85.10;;;;;;4953720;28;20129;-67
2021/10/19 08:04:47;;;;;;;18.90;12.40;;;11.30;85.00;;;;;;4961138;28;20102;-66
2021/10/19 08:07:12;;;;;;;18.35;12.73;;;11.30;85.00;;;;;;4957042;28;20036;-67
2021/10/19 08:09:38;;;;;;;19.73;13.32;;;11.40;85.20;;;;;;4960783;28;20058;-67
2021/10/19 08:12:04;;;;;;;19.40;13.00;;;11.40;85.20;;;;;;4955179;28;20105;-66
2021/10/19 08:14:30;;;;;;;17.80;12.30;;;11.50;85.20;;;;;;4959272;28;20411;-66
2021/10/19 08:16:56;;;;;;;18.98;12.93;;;11.50;85.00;;;;;;4958672;28;20032;-66
2021/10/19 08:19:21;;;;;;;19.70;12.25;;;11.60;85.00;;;;;;4960369;28;20114;-67
2021/10/19 08:21:47;;;;;;;18.35;12.57;;;11.60;84.80;;;;;;4964930;28;20079;-67
2021/10/19 08:24:13;;;;;;;18.40;11.88;;;11.70;84.80;;;;;;4966496;28;20036;-67
2021/10/19 08:26:38;;;;;;;17.85;12.20;;;11.70;84.70;;;;;;4966594;28;20039;-67
2021/10/19 08:29:04;;;;;;;15.23;11.73;;;11.70;84.60;;;;;;4966060;28;20039;-67
2021/10/19 08:31:32;;;;;;;18.70;12.35;;;11.80;84.60;;;;;;4966972;28;20031;-67
2021/10/19 08:33:58;;;;;;;19.60;13.05;;;11.80;84.30;;;;;;4966586;28;20036;-67
2021/10/19 08:36:24;;;;;;;19.42;12.98;;;11.80;84.90;;;;;;4965350;28;20142;-66
2021/10/19 08:38:51;;;;;;;18.75;12.48;;;11.90;84.00;;;;;;4967115;28;20042;-67
2021/10/19 08:41:18;;;;;;;19.35;12.90;;;11.90;83.80;;;;;;4966836;28;20114;-66
2021/10/19 08:43:45;;;;;;;17.73;12.80;;;11.90;83.90;;;;;;4966039;28;20035;-67
2021/10/19 08:46:12;;;;;;;16.33;11.75;;;11.90;84.00;;;;;;4965910;28;20053;-67
2021/10/19 08:48:39;;;;;;;17.48;12.35;;;11.90;83.80;;;;;;4966374;28;20031;-66
2021/10/19 08:51:07;;;;;;;17.13;11.80;;;12.00;83.90;;;;;;4966784;28;20438;-66
2021/10/19 08:53:40;;;;;;;16.10;11.20;;;12.00;84.00;;;;;;4965784;28;20399;-67
2021/10/19 08:56:06;;;;;;;15.85;11.40;;;12.00;84.00;;;;;;4967349;28;20030;-66
2021/10/19 08:58:33;;;;;;;20.98;11.88;;;12.10;84.00;;;;;;4965525;28;20082;-66
2021/10/19 09:01:11;;;;;;;15.30;11.20;;;12.10;83.90;;;;;;4965355;28;20495;-67
2021/10/19 09:03:48;;;;;;;16.98;11.48;;;12.20;84.00;;;;;;4970252;28;20039;-67
2021/10/19 09:06:13;;;;;;;16.92;11.90;;;12.20;84.00;;;;;;4964420;28;20287;-67
2021/10/19 09:08:48;;;;;;;16.50;11.38;;;12.20;84.00;;;;;;4964961;28;20089;-67
2021/10/19 09:11:14;;;;;;;15.35;11.80;;;12.30;84.10;;;;;;4968037;28;20023;-67
2021/10/19 09:13:52;;;;;;;18.40;11.40;;;12.40;84.20;;;;;;4964958;28;20372;-66
2021/10/19 09:16:18;;;;;;;16.35;11.43;;;12.40;84.30;;;;;;4967045;28;20023;-66
2021/10/19 09:18:44;;;;;;;16.50;11.80;;;12.50;84.20;;;;;;4963157;28;20054;-66
2021/10/19 09:21:10;;;;;;;16.63;10.82;;;12.60;84.30;;;;;;4962828;28;20027;-67
2021/10/19 09:23:36;;;;;;;14.27;11.38;;;12.70;84.20;;;;;;4964804;28;20038;-67
2021/10/19 09:26:03;;;;;;;15.48;11.13;;;12.70;84.00;;;;;;4963084;28;20046;-67
2021/10/19 09:28:34;;;;;;;13.80;10.85;;;12.80;83.90;;;;;;4963089;28;20510;-67
2021/10/19 09:31:00;;;;;;;12.45;10.27;;;12.90;83.60;;;;;;4962827;28;20042;-67
2021/10/19 09:33:26;;;;;;;14.35;10.52;;;12.90;83.40;;;;;;4959132;28;20039;-66
2021/10/19 09:35:58;;;;;;;14.05;10.10;;;13.00;83.20;;;;;;4958953;28;20039;-67
2021/10/19 09:38:24;;;;;;;14.23;10.65;;;13.10;82.90;;;;;;4957929;28;20567;-67
2021/10/19 09:40:53;;;;;;;13.07;10.02;;;13.20;82.60;;;;;;4958954;28;20086;-67
2021/10/19 09:43:32;;;;;;;13.43;10.38;;;13.20;82.40;;;;;;4961874;28;20046;-67
2021/10/19 09:46:00;;;;;;;13.45;10.38;;;13.30;82.00;;;;;;4963163;28;20418;-67
2021/10/19 09:48:29;;;;;;;15.05;10.93;;;13.40;82.20;;;;;;4960490;28;20118;-67
2021/10/19 09:50:58;;;;;;;14.48;10.57;;;13.40;82.00;;;;;;4959384;28;20506;-66
2021/10/19 09:53:25;;;;;;;16.42;10.57;;;13.50;82.00;;;;;;4960190;28;20074;-67
2021/10/19 09:55:52;;;;;;;15.05;10.93;;;13.60;82.00;;;;;;4960136;28;20154;-67
2021/10/19 09:58:19;;;;;;;14.75;10.77;;;13.60;81.70;;;;;;4961924;28;20035;-67
2021/10/19 10:00:45;;;;;;;13.80;10.32;;;13.60;81.50;;;;;;4959091;28;20035;-67
2021/10/19 10:03:12;;;;;;;14.07;10.40;;;13.70;81.70;;;;;;4956432;28;20054;-67
2021/10/19 10:05:38;;;;;;;12.10;9.68;;;13.80;81.90;;;;;;4960837;28;20528;-67
2021/10/19 10:08:06;;;;;;;12.95;10.35;;;13.80;81.90;;;;;;4959881;28;20126;-67
2021/10/19 10:10:31;;;;;;;14.27;9.57;;;13.90;81.50;;;;;;4958931;28;20034;-67
2021/10/19 10:13:06;;;;;;;11.25;9.23;;;13.90;81.50;;;;;;4959381;28;20640;-68
2021/10/19 10:15:34;;;;;;;14.32;10.05;;;14.00;81.10;;;;;;4959914;28;20050;-67
2021/10/19 10:18:06;;;;;;;12.13;9.50;;;14.10;80.80;;;;;;4958777;28;20066;-68
2021/10/19 10:20:52;;;;;;;13.52;9.73;;;14.10;80.10;;;;;;4973310;28;20062;-67
2021/10/19 10:23:27;;;;;;;11.02;9.13;;;14.20;80.50;;;;;;4960287;28;20035;-67
2021/10/19 10:25:57;;;;;;;14.65;9.48;;;14.20;79.30;;;;;;4958854;28;20035;-67
2021/10/19 10:28:31;;;;;;;14.75;9.55;;;14.20;79.30;;;;;;4961018;28;20115;-68
2021/10/19 10:31:04;;;;;;;12.50;9.30;;;14.30;79.20;;;;;;4958056;28;20118;-67
2021/10/19 10:33:38;;;;;;;11.45;9.05;;;14.40;79.00;;;;;;4960886;28;20274;-66
2021/10/19 10:36:09;;;;;;;10.43;8.55;;;14.40;78.90;;;;;;4961102;28;20134;-67
2021/10/19 10:38:36;;;;;;;9.98;8.60;;;14.40;78.70;;;;;;4958645;28;20035;-67
2021/10/19 10:41:13;;;;;;;13.90;9.07;;;14.50;78.70;;;;;;4962155;28;20055;-67
2021/10/19 10:43:39;;;;;;;10.50;8.70;;;14.50;77.90;;;;;;4960435;28;20503;-67
2021/10/19 10:46:10;;;;;;;10.35;8.48;;;14.50;78.40;;;;;;4955651;28;20039;-67
2021/10/19 10:48:37;;;;;;;11.40;8.63;;;14.60;78.10;;;;;;4957293;28;20574;-67
2021/10/19 10:51:05;;;;;;;10.75;8.50;;;14.60;77.80;;;;;;4955893;28;20470;-67
2021/10/19 10:53:38;;;;;;;11.57;8.70;;;14.60;77.70;;;;;;4956575;28;20031;-67
2021/10/19 10:56:05;;;;;;;12.00;8.45;;;14.60;77.60;;;;;;4955779;28;20039;-67
2021/10/19 10:58:34;;;;;;;9.88;8.57;;;14.70;77.90;;;;;;4955860;28;20039;-66
2021/10/19 11:01:16;;;;;;;10.35;7.20;;;14.60;78.00;;;;;;4958609;28;20034;-67
2021/10/19 11:03:43;;;;;;;7.72;6.03;;;14.70;78.20;;;;;;4960642;28;20090;-67
2021/10/19 11:06:12;;;;;;;8.35;7.03;;;14.70;78.40;;;;;;4958480;28;20026;-67
2021/10/19 11:08:38;;;;;;;9.30;6.85;;;14.70;78.40;;;;;;4957014;28;20414;-67
2021/10/19 11:11:10;;;;;;;7.90;6.63;;;14.80;78.60;;;;;;4957797;28;20070;-67
2021/10/19 11:14:02;;;;;;;8.30;6.32;;;14.90;78.30;;;;;;4959112;28;20031;-66
2021/10/19 11:16:47;;;;;;;6.50;5.13;;;14.90;78.20;;;;;;4956635;28;20121;-68
2021/10/19 11:19:24;;;;;;;6.90;5.55;;;14.90;78.30;;;;;;4965135;28;20045;-67
2021/10/19 11:21:53;;;;;;;8.40;6.38;;;15.00;78.20;;;;;;4958115;28;20327;-67
2021/10/19 11:24:21;;;;;;;6.90;6.05;;;15.00;78.20;;;;;;4958921;28;20046;-67
2021/10/19 11:26:47;;;;;;;10.95;6.88;;;15.00;78.00;;;;;;4961069;28;20532;-67
2021/10/19 11:29:14;;;;;;;10.43;7.68;;;15.00;78.00;;;;;;4958210;28;20236;-67
2021/10/19 11:31:40;;;;;;;9.52;7.90;;;15.00;78.80;;;;;;4958872;28;20042;-67
2021/10/19 11:34:07;;;;;;;11.00;8.43;;;15.00;78.10;;;;;;4958016;28;20030;-67
2021/10/19 11:36:33;;;;;;;11.52;8.65;;;15.10;78.40;;;;;;4958377;28;20593;-67
2021/10/19 11:39:01;;;;;;;9.68;8.02;;;15.10;78.50;;;;;;4956522;28;20042;-67
2021/10/19 11:41:29;;;;;;;8.30;6.90;;;15.10;78.60;;;;;;4957783;28;20054;-67
2021/10/19 11:43:58;;;;;;;10.05;7.22;;;15.20;78.70;;;;;;4957847;28;20046;-67
2021/10/19 11:46:27;;;;;;;11.30;6.32;;;15.20;78.50;;;;;;4957916;28;20410;-68
2021/10/19 11:48:54;;;;;;;9.38;6.30;;;15.20;78.40;;;;;;4957890;28;20558;-67
2021/10/19 11:51:23;;;;;;;7.45;5.63;;;15.30;78.20;;;;;;4958296;28;20031;-68
2021/10/19 11:53:50;;;;;;;8.73;5.78;;;15.40;78.30;;;;;;4965193;28;20074;-68
2021/10/19 11:56:17;;;;;;;9.73;6.15;;;15.40;78.30;;;;;;4958120;28;20035;-67
2021/10/19 11:59:02;;;;;;;8.02;5.90;;;15.50;78.30;;;;;;4960257;28;20399;-67
2021/10/19 12:01:28;;;;;;;10.10;7.15;;;15.50;77.50;;;;;;4960102;28;20031;-67
2021/10/19 12:04:02;;;;;;;7.80;6.47;;;15.60;77.70;;;;;;4959971;28;20599;-67
2021/10/19 12:06:30;;;;;;;9.50;6.90;;;15.60;77.20;;;;;;4959520;28;20058;-67
2021/10/19 12:08:59;;;;;;;8.90;6.30;;;15.60;77.30;;;;;;4960323;28;20031;-67
2021/10/19 12:11:27;;;;;;;7.53;6.30;;;15.60;77.40;;;;;;4962369;28;20041;-66
2021/10/19 12:13:58;;;;;;;7.20;6.50;;;15.60;77.40;;;;;;4966032;28;20582;-67
2021/10/19 12:16:31;;;;;;;7.53;6.47;;;15.60;77.40;;;;;;4960440;28;20054;-67
2021/10/19 12:18:58;;;;;;;7.78;6.97;;;15.70;77.70;;;;;;4960788;28;20118;-68
2021/10/19 12:21:29;;;;;;;10.73;7.95;;;15.60;77.70;;;;;;4960479;28;20054;-68
2021/10/19 12:23:57;;;;;;;9.13;7.05;;;15.60;77.70;;;;;;4959278;28;20035;-67
2021/10/19 12:26:26;;;;;;;7.85;6.88;;;15.60;77.70;;;;;;4959657;28;20547;-67
2021/10/19 12:28:54;;;;;;;9.73;6.95;;;15.60;77.90;;;;;;4959278;28;20031;-67
2021/10/19 12:31:22;;;;;;;8.45;6.80;;;15.50;77.80;;;;;;4965665;28;20070;-68
2021/10/19 12:33:56;;;;;;;7.03;6.28;;;15.50;77.90;;;;;;4960228;28;20039;-68
2021/10/19 12:36:27;;;;;;;6.25;5.30;;;15.50;77.50;;;;;;4961344;28;20031;-67